TimeMST,TemperatureF,Dew PointF,Humidity,Sea Level PressureIn,VisibilityMPH,Wind Direction,Wind SpeedMPH,Gust SpeedMPH,PrecipitationIn,Events,Conditions,WindDirDegrees,DateUTC
12:58 AM,34.2,18.7,53,29.87,10.0,ESE,8.1,-,N/A,,Clear,120,2013-02-22 07:58:00
1:58 AM,32.7,18.7,56,29.86,10.0,SE,12.7,-,N/A,,Clear,130,2013-02-22 08:58:00
2:58 AM,28.4,16.5,61,29.86,10.0,SW,4.6,-,N/A,,Clear,220,2013-02-22 09:58:00
3:58 AM,29.3,16.7,59,29.86,10.0,ESE,3.5,-,N/A,,Clear,120,2013-02-22 10:58:00
4:58 AM,23.9,13.1,63,29.88,10.0,East,4.6,-,N/A,,Clear,100,2013-02-22 11:58:00
5:58 AM,27.5,15.8,61,29.91,10.0,SE,4.6,-,N/A,,Clear,130,2013-02-22 12:58:00
6:58 AM,23.0,12.6,64,29.96,10.0,Calm,Calm,-,N/A,,Clear,0,2013-02-22 13:58:00
7:58 AM,32.2,18.0,56,29.97,10.0,SE,9.2,-,N/A,,Clear,140,2013-02-22 14:58:00
8:58 AM,37.4,19.6,49,29.99,10.0,South,6.9,-,N/A,,Clear,170,2013-02-22 15:58:00
9:58 AM,42.4,20.8,42,29.98,10.0,South,8.1,-,N/A,,Clear,170,2013-02-22 16:58:00
10:58 AM,45.7,21.2,38,29.98,10.0,South,6.9,-,N/A,,Clear,170,2013-02-22 17:58:00
11:58 AM,49.1,17.1,28,29.95,10.0,West,10.4,-,N/A,,Clear,270,2013-02-22 18:58:00
12:58 PM,49.6,14.5,25,29.91,10.0,Variable,4.6,-,N/A,,Clear,0,2013-02-22 19:58:00
1:58 PM,52.0,14.5,23,29.88,10.0,WSW,4.6,18.4,N/A,,Clear,240,2013-02-22 20:58:00
2:58 PM,52.9,13.3,21,29.88,10.0,WSW,9.2,17.3,N/A,,Clear,240,2013-02-22 21:58:00
3:58 PM,53.8,13.8,21,29.87,10.0,SSW,11.5,17.3,N/A,,Clear,200,2013-02-22 22:58:00
4:58 PM,54.0,14.0,21,29.86,10.0,SW,11.5,-,N/A,,Clear,230,2013-02-22 23:58:00
5:58 PM,50.7,14.4,24,29.86,10.0,SW,15.0,-,N/A,,Clear,220,2013-02-23 00:58:00
6:58 PM,47.5,15.8,28,29.91,10.0,SW,18.4,-,N/A,,Clear,220,2013-02-23 01:58:00
7:58 PM,47.3,16.7,30,29.92,10.0,SW,18.4,-,N/A,,Clear,230,2013-02-23 02:58:00
8:58 PM,45.3,17.2,33,29.93,10.0,WSW,13.8,-,N/A,,Clear,240,2013-02-23 03:58:00
9:58 PM,45.0,18.3,35,29.94,10.0,West,15.0,-,N/A,,Scattered Clouds,270,2013-02-23 04:58:00
10:58 PM,39.7,13.6,35,29.98,10.0,North,8.1,-,N/A,,Clear,10,2013-02-23 05:58:00
11:58 PM,34.9,11.8,39,29.99,10.0,North,11.5,-,N/A,,Clear,10,2013-02-23 06:58:00